CMB857 Details

Departure: Naval Station Rota (LERT)
Arrival: Bahrain International Airport (OBBI)
Route: MGA2Z MGA A44 AMR A44 MOS A411 ALR A31 BNA J9 BTN J10 TBS P128 TANLI V300 ZAW WLD G659 GS UM999 NAKDO M999 LXR UL604 KFA M691 LADNA LADNA1
Notes: USTRANSCOM CONTRACT FLIGHT


Current Weather Information
LERT 232200Z 31005KT CAVOK 21/15 Q1015 NOSIG
OBBI 232230Z 27006KT CAVOK 31/20 Q1006 NOSIG